x

Lake Of The Woods (45148) Wave Buoy

10:00am - Mon 29th May 2017 All times are UTC.

  • Sig Wave height 0.3ft
  • Peak Period 3s
  • Wind
    16mph, 20mph gusts
  • Sea Temp 53°f
  • Air Temp 49°f
  • Sea Pressure 1005.8mb

More Historic Weather Station data

Upgrade to MSW Pro to gain access to the past 30 days of data for over 8000 Wavebouys and Weather Stations around the globe.

Join Pro

Comparision Forecast

View Surf forecast
   
Mon 05/29 10:00am 0.3ft 3s 16 20 mph 1005.8mb 53f 49f
9:00am 0.3ft 3s 16 20 mph 1005.7mb 53f 49f
8:00am 0.3ft 2s 13 18 mph 1005.5mb 53f 49f
7:00am 0.3ft 3s 13 18 mph 1005.3mb 53f 50f
6:00am 0.3ft 3s 13 20 mph 1005.1mb 54f 51f
5:00am 0.3ft 3s 16 18 mph 1005.2mb 54f 51f
4:00am 0.3ft 3s 16 20 mph 1005.3mb 54f 52f
3:00am  -  4s 11 16 mph 1005.1mb 54f 54f
2:00am 0.3ft 3s 11 13 mph 1004.6mb 54f 55f
1:00am 0.3ft 3s 13 20 mph 1004.2mb 55f 57f
12:00am 0.3ft 3s 9 13 mph 1004mb 55f 58f
Sun 05/28 11:00pm 0.3ft 3s 9 13 mph 1004.1mb 55f 56f
10:00pm 0.3ft 2s 9 11 mph 1003.9mb 55f 56f
9:00pm 0.3ft 2s 11 13 mph 1003.8mb 54f 54f
8:00pm  -  3s 2 4 mph 1003.9mb 54f 56f
7:00pm  -  3s 7 9 mph 1003.5mb 54f 57f
6:00pm 0.3ft 3s 7 11 mph 1003.6mb 55f 57f
5:00pm 0.3ft 2s 11 13 mph 1004mb 54f 55f
4:00pm 0.3ft 2s 13 16 mph 1003.9mb 54f 56f
3:00pm 0.3ft 3s 11 16 mph 1004mb 54f 56f
2:00pm  -  2s 7 11 mph 1003.9mb 55f 56f
1:00pm 0.3ft 3s 7 9 mph 1003.9mb 54f 55f
12:00pm  -  4s 11 16 mph 1003.9mb 55f 53f
11:00am  -  5s 11 13 mph 1003.9mb 55f 54f
10:00am  -  6s 7 9 mph 1004.1mb 55f 55f
9:00am  -  2s 4 7 mph 1004mb 55f 56f
8:00am  -  2s  -  4 mph 1004.1mb 55f 56f
7:00am  -  2s 4 4 mph 1004.1mb 55f 56f
6:00am  -  2s 4 4 mph 1004.2mb 55f 56f
5:00am  -  2s  -  2 mph 1004.9mb 55f 56f
4:00am  -  2s 4 4 mph 1005.1mb 55f 57f
3:00am  -  2s 2 2 mph 1005.5mb 56f 58f
2:00am  -  2s 4 4 mph 1005.2mb 55f 58f
1:00am  -  2s 4 4 mph 1005.4mb 55f 61f
12:00am  -  2s 2 2 mph 1005.6mb 56f 62f
Sat 05/27 11:00pm  -  2s 4 7 mph 1006mb 55f 61f
10:00pm 0.3ft 2s 2 2 mph 1006.3mb 55f 62f
9:00pm 0.7ft 2s 11 13 mph 1005.8mb 55f 62f
8:00pm 0.3ft 3s 9 13 mph 1005.8mb 55f 64f
7:00pm  -  3s 13 13 mph 1005.8mb 55f 64f
6:00pm  -  3s 9 13 mph 1006.2mb 56f 63f
5:00pm  -  3s 2 4 mph 1006.9mb 56f 62f
4:00pm  -  2s 2 2 mph 1007.5mb 55f 59f
3:00pm  -  3s 4 4 mph 1007.6mb 54f 55f
2:00pm  -  3s 4 4 mph 1007.7mb 53f 55f
1:00pm  -  3s 7 9 mph 1007.8mb 53f 54f
12:00pm  -  2s 7 9 mph 1007.5mb 53f 54f
11:00am  -  3s 7 9 mph 1007.4mb 53f 53f
10:00am  -  4s 4 7 mph 1007.2mb 53f 53f
9:00am  -  2s 7 9 mph 1007.2mb 53f 54f
8:00am  -  3s 7 9 mph 1006.7mb 53f 55f
7:00am  -  4s 7 9 mph 1006.8mb 53f 56f
6:00am  -  3s 4 4 mph 1006.6mb 53f 56f
5:00am  -  2s 4 4 mph 1006.4mb 53f 57f
4:00am  -  2s 7 9 mph 1006.4mb 53f 58f
3:00am 0.3ft 2s 7 7 mph 1005.9mb 54f 59f
2:00am  -  3s 9 11 mph 1005.3mb 54f 61f
1:00am 0.3ft 2s 4 7 mph 1004.6mb 54f 62f
12:00am 0.3ft 2s 11 13 mph 1003.9mb 54f 63f
Fri 05/26 11:00pm 0.3ft 2s 9 13 mph 1003.3mb 54f 63f
10:00pm 0.3ft 2s 11 13 mph 1002.9mb 55f 66f
9:00pm  -  3s 7 11 mph 1002.8mb 56f 65f
8:00pm  -  3s 7 9 mph 1002.7mb 56f 64f
7:00pm  -  2s 9 11 mph 1002.8mb 56f 64f
6:00pm  -  3s 2 4 mph 1003.2mb 56f 62f
5:00pm  -  3s 4 7 mph 1003.3mb 53f 59f
4:00pm  -  3s 7 9 mph 1003.3mb 52f 58f
3:00pm  -  2s 9 11 mph 1003.3mb 51f 57f
2:00pm  -  3s 9 11 mph 1003.1mb 51f 57f
1:00pm 0.3ft 3s 7 9 mph 1003.1mb 50f 54f
12:00pm 0.3ft 3s 11 11 mph 1002.9mb 50f 54f
11:00am 0.3ft 2s 11 13 mph 1002.8mb 50f 55f
10:00am 0.3ft 2s 11 13 mph 1002.5mb 51f 55f
9:00am 0.3ft 3s 13 16 mph 1002.3mb 51f 55f
8:00am 0.3ft 2s 13 18 mph 1002.7mb 51f 55f
7:00am 0.3ft 3s 13 18 mph 1002.7mb 51f 57f
6:00am 0.7ft 2s 11 16 mph 1003.2mb 50f 56f
5:00am  -  3s 22 29 mph 1003.3mb 50f 59f
4:00am  -  2s 7 9 mph 1003.2mb 50f 58f
3:00am  -  2s 7 9 mph 1003.2mb 50f 58f
2:00am  -  3s 7 7 mph 1002.9mb 50f 58f
1:00am 0.3ft 2s 9 11 mph 1002.4mb 50f 60f
12:00am 0.3ft 3s 13 16 mph 1001.8mb 50f 61f
Thu 05/25 11:00pm 0.3ft 2s 11 13 mph 1001.9mb 50f 62f
10:00pm 0.3ft 2s 13 18 mph 1001.8mb 50f 62f
9:00pm 0.7ft 2s 11 16 mph 1002.3mb 50f 61f
8:00pm 0.3ft 3s 13 18 mph 1002.4mb 51f 61f
7:00pm 0.3ft 3s 13 16 mph 1003.1mb 50f 60f
6:00pm 0.3ft 2s 11 16 mph 1003.7mb 50f 59f
5:00pm 0.7ft 2s 16 18 mph 1004mb 50f 58f
4:00pm 0.3ft 2s 13 16 mph 1004.3mb 50f 56f
3:00pm 0.3ft 2s 9 13 mph 1004.7mb 50f 54f
2:00pm 0.3ft 2s 13 16 mph 1005.3mb 50f 52f
1:00pm 0.3ft 2s 13 16 mph 1005.8mb 50f 51f
12:00pm 0.3ft 2s 13 18 mph 1005.9mb 50f 50f